Phillipsburg, Missouri
Current Conditions -  °F | °C
As of 8:35 AM on Thursday 30 Oct 2014 (Local Time) from KH21 Reporting Station
Broken Clouds Broken Clouds  
Wind Chill: 10°   Ceiling: 12000
Heat Index: 10°   Visibility: 10mi
Dew Point:   Wind: 9mph
Humidity: 58%   Direction: 150°SSE
Pressure: 30.08"   Gusts: NA
Location:  37.55°N, 92.78°W
Report Text: KH21 301335Z AUTO 15008KT 10SM BKN120 10/02 A3008 RMK AO2
Loading
Personal Weather Stations






























Interactive Weather Map
Tropical Storm Tracking
New forecast layout! Learn more

10-Day Weather Forecast

Advertisements
Track Severe Weather on mobile